Flight Track Log - Related Links

Times and Time Zones

All times are in EST time to prevent confusion due to time zone crossing. See the N214GF flight status page for this flight to view local times or setup timezone preferences in your user account.

Time Position Orientation Groundspeed Altitude Reporting Facility
EST Latitude Longitude Course Direction KTS MPH feet Rate Location/Type
Sun 05:25:23 PM 43.0803 -89.2211 142° Southeast 151 174 5,700  Level Chicago Center
Sun 05:26:25 PM 43.0367 -89.1750 142° Southeast 158 182 6,900 629 Climbing Chicago Center
Sun 05:27:00 PM 42.9521 -89.1192 139° Southeast  Level FlightAware Approximate
Sun 05:27:27 PM 42.9969 -89.1339 143° Southeast 171 197 7,000  Level Chicago Center
Sun 05:28:00 PM 42.9137 -89.0803 144° Southeast  Level FlightAware Approximate
Sun 05:28:29 PM 42.9519 -89.0903 145° Southeast 189 217 7,000  Level Chicago Center
Sun 05:29:00 PM 42.8750 -89.0416 144° Southeast  Level FlightAware Approximate
Sun 05:29:30 PM 42.9075 -89.0431 142° Southeast 197 227 7,000  Level Chicago Center
Sun 05:30:32 PM 42.8614 -88.9964 143° Southeast 203 234 7,000  Level Chicago Center
Sun 05:31:34 PM 42.8175 -88.9508 143° Southeast 201 231 7,000  Level Chicago Center
Sun 05:32:35 PM 42.7636 -88.8950 143° Southeast 202 232 7,000  Level Chicago Center
Sun 05:33:37 PM 42.7192 -88.8497 143° Southeast 202 232 7,000 -145 Level Chicago Center
Sun 05:34:39 PM 42.6747 -88.8031 142° Southeast 202 232 6,700 -339 Descending Chicago Center
Sun 05:35:41 PM 42.6278 -88.7572 144° Southeast 206 237 6,300 -341 Descending Chicago Center
Sun 05:36:42 PM 42.5817 -88.7092 142° Southeast 208 239 6,000 -146 Descending Chicago Center
Sun 05:37:44 PM 42.5378 -88.6633 142° Southeast 203 234 6,000 -97 Level Chicago Center
Sun 05:38:46 PM 42.4944 -88.6192 143° Southeast 198 228 5,800 -339 Descending Chicago Center
Sun 05:39:48 PM 42.4536 -88.5539 130° Southeast 200 230 5,300 -390 Descending Chicago Center
Sun 05:40:49 PM 42.4311 -88.4906 116° Southeast 192 221 5,000 -146 Descending Chicago Center
Sun 05:41:51 PM 42.4078 -88.4319 118° Southeast 183 211 5,000 -145 Level Chicago Center
Sun 05:42:53 PM 42.3861 -88.3756 117° Southeast 174 200 4,700 -387 Descending Chicago Center
Sun 05:43:55 PM 42.3622 -88.3186 120° Southeast 174 200 4,200 -488 Descending Chicago Center
Sun 05:44:56 PM 42.3433 -88.2561 112° Southeast 178 205 3,700 -488 Descending Chicago Center
Sun 05:45:58 PM 42.3231 -88.1844 111° Southeast 176 203 3,200 -339 Descending Chicago Center
Sun 05:47:00 PM 42.3103 -88.1242 106° East 169 194 3,000 -97 Descending Chicago Center
Sun 05:48:02 PM 42.3072 -88.0611 94° East 158 182 3,000  Level Chicago Center
Sun 05:49:04 PM 42.2878 -88.0094 117° Southeast 166 191 3,000 -244 Level Chicago Center
Sun 05:50:05 PM 42.2464 -87.9733 147° Southeast 167 192 2,500 -293 Descending Chicago Center
Sun 05:51:07 PM 42.2061 -87.9494 156° South 171 197 2,400 -97 Descending Chicago Center
Sun 05:53:00 PM 42.1175 -87.9081 161° South  Level FlightAware Approximate
Sun 06:00:00 PM 42.1143 -87.9015 151° Southeast  Level Estimated
Sun 06:01:00 PM 42.1143 -87.9015 151° Southeast  Level Estimated

Login

Don't have an account? Register now (free) for customized features, flight alerts, and more!